createdAt,value
2023-02-09T00:00:29.124Z,11.32
2023-02-09T00:02:57.079Z,11.40
2023-02-09T00:05:25.035Z,11.82
2023-02-09T00:07:52.977Z,12.02
2023-02-09T00:10:21.076Z,12.18
2023-02-09T00:13:06.300Z,12.27
2023-02-09T00:15:35.670Z,12.50
2023-02-09T00:18:03.610Z,11.60
2023-02-09T00:20:31.594Z,11.38
2023-02-09T00:22:59.572Z,12.10
2023-02-09T00:25:27.497Z,12.00
2023-02-09T00:27:55.521Z,11.80
2023-02-09T00:30:23.523Z,11.57
2023-02-09T00:32:52.902Z,11.55
2023-02-09T00:35:21.041Z,11.70
2023-02-09T00:37:48.983Z,11.07
2023-02-09T00:40:16.975Z,11.30
2023-02-09T00:42:45.041Z,13.00
2023-02-09T00:45:13.679Z,10.88
2023-02-09T00:47:41.798Z,11.90
2023-02-09T00:50:11.296Z,11.50
2023-02-09T00:52:39.326Z,12.20
2023-02-09T00:55:08.031Z,12.27
2023-02-09T00:57:36.083Z,11.73
2023-02-09T01:00:04.581Z,10.82
2023-02-09T01:02:32.661Z,11.25
2023-02-09T01:05:00.956Z,11.77
2023-02-09T01:07:30.307Z,12.80
2023-02-09T01:09:59.975Z,13.27
2023-02-09T01:12:27.913Z,11.88
2023-02-09T01:14:55.887Z,11.18
2023-02-09T01:17:23.863Z,11.40
2023-02-09T01:19:53.296Z,11.68
2023-02-09T01:22:22.335Z,12.15
2023-02-09T01:24:51.791Z,11.57
2023-02-09T01:27:19.897Z,11.43
2023-02-09T01:29:47.894Z,12.23
2023-02-09T01:32:15.974Z,12.40
2023-02-09T01:34:43.972Z,11.50
2023-02-09T01:37:11.947Z,12.32
2023-02-09T01:39:39.951Z,11.95
2023-02-09T01:42:14.662Z,12.03
2023-02-09T01:45:16.686Z,11.65
2023-02-09T01:47:48.194Z,11.70
2023-02-09T01:50:17.008Z,11.90
2023-02-09T01:52:45.797Z,11.90
2023-02-09T01:55:18.598Z,12.10
2023-02-09T01:57:52.307Z,11.60
2023-02-09T02:00:22.315Z,12.25
2023-02-09T02:02:53.979Z,13.25
2023-02-09T02:05:23.669Z,13.30
2023-02-09T02:07:58.642Z,12.55
2023-02-09T02:10:26.691Z,11.98
2023-02-09T02:12:56.138Z,12.60
2023-02-09T02:15:28.329Z,13.10
2023-02-09T02:18:15.667Z,12.25
2023-02-09T02:21:14.865Z,12.98
2023-02-09T02:23:49.383Z,12.23
2023-02-09T02:26:54.639Z,12.10
2023-02-09T02:29:44.900Z,12.13
2023-02-09T02:32:36.428Z,13.00
2023-02-09T02:35:11.752Z,12.50
2023-02-09T02:37:49.821Z,12.30
2023-02-09T02:40:27.534Z,11.85
2023-02-09T02:42:59.144Z,12.23
2023-02-09T02:45:36.572Z,12.68
2023-02-09T02:48:17.415Z,12.38
2023-02-09T02:50:49.243Z,12.07
2023-02-09T02:53:19.868Z,11.65
2023-02-09T02:55:50.449Z,12.33
2023-02-09T02:58:22.790Z,12.88
2023-02-09T03:00:53.280Z,13.32
2023-02-09T03:03:27.055Z,11.93
2023-02-09T03:05:55.277Z,12.68
2023-02-09T03:08:23.254Z,11.75
2023-02-09T03:10:51.406Z,11.55
2023-02-09T03:13:37.958Z,12.35
2023-02-09T03:16:21.642Z,13.20
2023-02-09T03:19:03.878Z,11.60
2023-02-09T03:21:42.594Z,11.52
2023-02-09T03:24:16.441Z,12.00
2023-02-09T03:26:50.494Z,11.50
2023-02-09T03:29:20.162Z,11.60
2023-02-09T03:31:50.075Z,12.00
2023-02-09T03:34:19.863Z,11.75
2023-02-09T03:36:52.536Z,11.68
2023-02-09T03:39:20.761Z,11.70
2023-02-09T03:41:48.797Z,12.77
2023-02-09T03:44:28.813Z,12.90
2023-02-09T03:46:59.071Z,12.40
2023-02-09T03:49:30.262Z,12.80
2023-02-09T03:52:00.659Z,12.50
2023-02-09T03:54:29.032Z,12.82
2023-02-09T03:56:57.023Z,13.80
2023-02-09T03:59:25.956Z,12.50
2023-02-09T04:01:54.667Z,11.95
2023-02-09T04:04:23.215Z,11.30
2023-02-09T04:06:53.123Z,11.00
2023-02-09T04:09:21.519Z,12.20
2023-02-09T04:11:49.559Z,12.63
2023-02-09T04:14:18.248Z,12.38
2023-02-09T04:16:46.245Z,11.60
2023-02-09T04:19:14.347Z,11.32
2023-02-09T04:21:42.497Z,11.55
2023-02-09T04:24:11.968Z,11.30
2023-02-09T04:26:39.978Z,12.20
2023-02-09T04:29:07.925Z,10.70
2023-02-09T04:31:36.036Z,11.63
2023-02-09T04:34:04.060Z,11.20
2023-02-09T04:36:32.076Z,11.45
2023-02-09T04:39:00.153Z,10.97
2023-02-09T04:41:29.519Z,11.18
2023-02-09T04:43:57.507Z,11.50
2023-02-09T04:46:25.512Z,11.32
2023-02-09T04:48:53.465Z,11.37
2023-02-09T04:51:21.382Z,11.30
2023-02-09T04:53:49.304Z,10.75
2023-02-09T04:56:18.276Z,10.48
2023-02-09T04:59:13.351Z,10.07
2023-02-09T05:01:41.447Z,9.18
2023-02-09T05:04:09.386Z,10.80
2023-02-09T05:06:37.416Z,10.23
2023-02-09T05:09:05.525Z,10.13
2023-02-09T05:11:33.511Z,10.02
2023-02-09T05:14:02.938Z,9.93
2023-02-09T05:16:31.060Z,9.55
2023-02-09T05:18:59.068Z,9.98
2023-02-09T05:21:27.139Z,10.10
2023-02-09T05:23:55.169Z,10.00
2023-02-09T05:26:23.202Z,9.30
2023-02-09T05:28:51.228Z,9.40
2023-02-09T05:31:20.701Z,9.67
2023-02-09T05:33:48.765Z,10.57
2023-02-09T05:36:16.733Z,10.00
2023-02-09T05:38:44.731Z,10.30
2023-02-09T05:41:36.251Z,10.00
2023-02-09T05:44:04.722Z,10.60
2023-02-09T05:46:34.022Z,10.40
2023-02-09T05:49:02.085Z,10.25
2023-02-09T05:51:30.165Z,9.33
2023-02-09T05:53:58.193Z,10.00
2023-02-09T05:56:26.336Z,9.80
2023-02-09T05:58:54.310Z,9.23
2023-02-09T06:01:22.337Z,10.45
2023-02-09T06:03:51.804Z,10.02
2023-02-09T06:06:19.788Z,9.93
2023-02-09T06:08:47.776Z,9.50
2023-02-09T06:11:15.788Z,9.05
2023-02-09T06:13:43.852Z,10.27
2023-02-09T06:16:11.894Z,10.83
2023-02-09T06:18:39.913Z,10.40
2023-02-09T06:21:09.660Z,9.38
2023-02-09T06:23:37.601Z,9.20
2023-02-09T06:26:07.899Z,9.23
2023-02-09T06:28:35.969Z,10.45
2023-02-09T06:31:05.473Z,10.48
2023-02-09T06:33:34.344Z,9.60
2023-02-09T06:36:02.357Z,9.23
2023-02-09T06:38:33.544Z,9.57
2023-02-09T06:41:01.563Z,10.33
2023-02-09T06:43:29.736Z,10.65
2023-02-09T06:45:57.880Z,9.70
2023-02-09T06:48:25.963Z,9.60
2023-02-09T06:50:54.083Z,9.30
2023-02-09T06:53:22.180Z,9.38
2023-02-09T06:55:51.512Z,9.02
2023-02-09T06:58:19.451Z,10.50
2023-02-09T07:00:47.733Z,10.43
2023-02-09T07:03:15.785Z,9.40
2023-02-09T07:05:43.733Z,8.82
2023-02-09T07:08:11.833Z,9.20
2023-02-09T07:10:41.849Z,10.30
2023-02-09T07:13:11.171Z,9.23
2023-02-09T07:15:39.157Z,9.90
2023-02-09T07:18:07.242Z,9.15
2023-02-09T07:20:35.194Z,8.93
2023-02-09T07:23:03.223Z,9.73
2023-02-09T07:25:32.188Z,10.40
2023-02-09T07:28:00.299Z,9.83
2023-02-09T07:30:29.812Z,9.25
2023-02-09T07:32:57.812Z,9.88
2023-02-09T07:35:25.915Z,9.50
2023-02-09T07:37:53.956Z,10.98
2023-02-09T07:40:22.026Z,11.02
2023-02-09T07:42:51.886Z,10.70
2023-02-09T07:45:19.885Z,10.68
2023-02-09T07:47:49.200Z,10.63
2023-02-09T07:50:19.151Z,9.80
2023-02-09T07:52:48.017Z,10.30
2023-02-09T07:55:16.028Z,11.18
2023-02-09T07:57:44.994Z,9.50
2023-02-09T08:00:14.107Z,10.13
2023-02-09T08:02:42.115Z,10.25
2023-02-09T08:05:17.470Z,11.00
2023-02-09T08:07:45.820Z,9.90
2023-02-09T08:10:13.893Z,11.40
2023-02-09T08:12:59.467Z,9.80
2023-02-09T08:15:29.051Z,9.73
2023-02-09T08:18:00.980Z,11.00
2023-02-09T08:20:32.151Z,10.70
2023-02-09T08:23:07.430Z,11.55
2023-02-09T08:25:36.932Z,10.45
2023-02-09T08:28:05.718Z,10.63
2023-02-09T08:30:35.424Z,11.30
2023-02-09T08:33:03.727Z,11.30
2023-02-09T08:35:33.156Z,11.40
2023-02-09T08:38:02.570Z,12.35
2023-02-09T08:40:31.048Z,11.20
2023-02-09T08:42:59.053Z,10.70
2023-02-09T08:45:27.129Z,11.53
2023-02-09T08:47:55.217Z,11.40
2023-02-09T08:50:23.182Z,12.02
2023-02-09T08:52:52.549Z,12.20
2023-02-09T08:55:20.714Z,11.17
2023-02-09T08:57:48.710Z,10.70
2023-02-09T09:00:17.772Z,10.68
2023-02-09T09:02:45.798Z,11.90
2023-02-09T09:05:14.004Z,11.48
2023-02-09T09:07:42.144Z,11.60
2023-02-09T09:10:12.474Z,11.10
2023-02-09T09:12:40.615Z,11.60
2023-02-09T09:15:09.195Z,11.77
2023-02-09T09:17:37.183Z,11.80
2023-02-09T09:20:06.974Z,11.80
2023-02-09T09:22:34.983Z,11.40
2023-02-09T09:25:03.277Z,12.00
2023-02-09T09:27:34.960Z,12.32
2023-02-09T09:30:03.034Z,12.63
2023-02-09T09:32:31.218Z,13.02
2023-02-09T09:35:00.680Z,12.90
2023-02-09T09:37:28.811Z,14.02
2023-02-09T09:39:56.750Z,12.90
2023-02-09T09:42:28.774Z,12.73
2023-02-09T09:44:58.424Z,12.88
2023-02-09T09:47:35.599Z,13.15
2023-02-09T09:50:05.281Z,12.95
2023-02-09T09:52:38.161Z,12.13
2023-02-09T09:55:10.144Z,11.93
2023-02-09T09:57:43.798Z,13.23
2023-02-09T10:00:20.079Z,13.25
2023-02-09T10:02:48.326Z,14.23
2023-02-09T10:05:20.341Z,13.45
2023-02-09T10:07:54.274Z,12.93
2023-02-09T10:10:31.998Z,14.18
2023-02-09T10:13:03.740Z,13.27
2023-02-09T10:15:36.002Z,13.65
2023-02-09T10:18:07.714Z,14.10
2023-02-09T10:20:45.303Z,13.45
2023-02-09T10:23:18.956Z,13.60
2023-02-09T10:26:01.088Z,14.15
2023-02-09T10:28:31.302Z,14.30
2023-02-09T10:31:02.978Z,14.70
2023-02-09T10:33:40.226Z,15.07
2023-02-09T10:36:20.945Z,13.30
2023-02-09T10:38:48.952Z,14.38
2023-02-09T10:41:17.392Z,14.52
2023-02-09T10:43:51.644Z,14.50
2023-02-09T10:46:21.844Z,15.50
2023-02-09T10:48:49.882Z,15.55
2023-02-09T10:51:28.861Z,14.32
2023-02-09T10:54:02.908Z,14.63
2023-02-09T10:56:43.806Z,14.10
2023-02-09T10:59:18.361Z,14.90
2023-02-09T11:01:57.417Z,15.90
2023-02-09T11:04:27.531Z,15.43
2023-02-09T11:06:58.830Z,15.30
2023-02-09T11:09:30.292Z,14.93
2023-02-09T11:11:58.693Z,15.63
2023-02-09T11:14:27.012Z,16.02
2023-02-09T11:17:14.153Z,16.40
2023-02-09T11:20:05.545Z,16.70
2023-02-09T11:23:00.571Z,15.52
2023-02-09T11:25:32.274Z,16.08
2023-02-09T11:28:25.027Z,16.73
2023-02-09T11:31:10.743Z,16.60
2023-02-09T11:33:48.360Z,17.00
2023-02-09T11:36:25.826Z,17.20
2023-02-09T11:38:58.252Z,16.60
2023-02-09T11:41:48.137Z,17.17
2023-02-09T11:44:25.870Z,16.33
2023-02-09T11:47:00.159Z,16.80
2023-02-09T11:49:34.945Z,17.15
2023-02-09T11:52:04.737Z,16.50
2023-02-09T11:54:37.584Z,16.48
2023-02-09T11:57:16.256Z,16.75
2023-02-09T11:59:56.380Z,16.80
2023-02-09T12:02:38.975Z,16.20
2023-02-09T12:05:13.294Z,17.65
2023-02-09T12:07:49.170Z,18.30
2023-02-09T12:10:24.802Z,17.75
2023-02-09T12:12:59.762Z,17.30
2023-02-09T12:15:37.241Z,18.70
2023-02-09T12:18:12.557Z,18.67
2023-02-09T12:20:52.053Z,19.50
2023-02-09T12:23:25.102Z,19.98
2023-02-09T12:25:59.501Z,19.25
2023-02-09T12:28:44.572Z,20.38
2023-02-09T12:31:16.002Z,19.05
2023-02-09T12:34:04.016Z,19.02
2023-02-09T12:36:34.930Z,19.73
2023-02-09T12:39:24.333Z,20.25
2023-02-09T12:42:26.380Z,20.10
2023-02-09T12:45:00.552Z,19.52
2023-02-09T12:47:43.352Z,19.52
2023-02-09T12:50:24.725Z,19.27
2023-02-09T12:53:30.181Z,19.83
2023-02-09T12:56:05.306Z,19.30
2023-02-09T12:58:41.138Z,18.58
2023-02-09T13:01:09.744Z,18.13
2023-02-09T13:03:45.219Z,19.25
2023-02-09T13:06:29.369Z,18.10
2023-02-09T13:08:59.720Z,19.55
2023-02-09T13:11:32.362Z,20.20
2023-02-09T13:14:05.927Z,20.73
2023-02-09T13:17:29.433Z,19.75
2023-02-09T13:20:12.658Z,18.50
2023-02-09T13:22:51.761Z,20.25
2023-02-09T13:25:27.646Z,20.70
2023-02-09T13:27:57.126Z,20.60
2023-02-09T13:30:30.974Z,19.40
2023-02-09T13:33:06.519Z,20.92
2023-02-09T13:35:38.678Z,19.80
2023-02-09T13:38:16.984Z,20.23
2023-02-09T13:40:48.045Z,19.80
2023-02-09T13:43:30.044Z,20.08
2023-02-09T13:45:59.658Z,21.52
2023-02-09T13:48:30.317Z,21.85
2023-02-09T13:51:00.857Z,22.05
2023-02-09T13:53:30.627Z,21.20
2023-02-09T13:56:00.846Z,19.33
2023-02-09T13:58:35.152Z,21.23
2023-02-09T14:01:06.197Z,21.65
2023-02-09T14:03:56.648Z,22.15
2023-02-09T14:06:32.477Z,22.17
2023-02-09T14:09:02.559Z,21.00
2023-02-09T14:11:42.559Z,21.08
2023-02-09T14:14:16.421Z,22.00
2023-02-09T14:16:52.977Z,21.75
2023-02-09T14:19:27.475Z,21.75
2023-02-09T14:21:55.589Z,23.02
2023-02-09T14:24:25.420Z,22.60
2023-02-09T14:26:56.057Z,22.70
2023-02-09T14:29:28.499Z,22.00
2023-02-09T14:31:58.130Z,22.38
2023-02-09T14:34:33.556Z,22.10
2023-02-09T14:37:05.343Z,22.42
2023-02-09T14:39:33.398Z,22.85
2023-02-09T14:42:18.019Z,23.65
2023-02-09T14:44:49.360Z,22.83
2023-02-09T14:47:39.412Z,23.40
2023-02-09T14:50:09.602Z,22.75
2023-02-09T14:52:39.767Z,23.45
2023-02-09T14:55:15.834Z,22.73
2023-02-09T14:57:43.862Z,23.60
2023-02-09T15:00:18.915Z,23.90
2023-02-09T15:02:47.399Z,22.33
2023-02-09T15:05:15.787Z,23.05
2023-02-09T15:07:47.076Z,24.05
2023-02-09T15:10:24.676Z,23.08
2023-02-09T15:12:52.999Z,23.58
2023-02-09T15:15:23.705Z,23.58
2023-02-09T15:17:51.943Z,22.85
2023-02-09T15:20:24.454Z,25.45
2023-02-09T15:22:52.516Z,24.67
2023-02-09T15:25:20.526Z,23.98
2023-02-09T15:27:51.668Z,23.95
2023-02-09T15:30:23.597Z,24.57
2023-02-09T15:32:51.673Z,25.60
2023-02-09T15:35:21.587Z,25.97
2023-02-09T15:37:52.453Z,25.35
2023-02-09T15:40:45.006Z,25.55
2023-02-09T15:43:32.529Z,25.08
2023-02-09T15:46:19.215Z,24.17
2023-02-09T15:48:47.282Z,25.35
2023-02-09T15:51:15.691Z,24.85
2023-02-09T15:53:44.006Z,26.08
2023-02-09T15:56:14.245Z,27.42
2023-02-09T15:58:44.849Z,26.15
2023-02-09T16:01:16.707Z,26.10
2023-02-09T16:03:45.318Z,26.55
2023-02-09T16:06:15.750Z,26.07
2023-02-09T16:08:45.189Z,27.85
2023-02-09T16:11:19.891Z,28.65
2023-02-09T16:13:48.244Z,28.13
2023-02-09T16:16:18.393Z,28.35
2023-02-09T16:18:46.482Z,27.50
2023-02-09T16:21:20.979Z,27.90
2023-02-09T16:23:49.556Z,27.30
2023-02-09T16:26:19.364Z,28.15
2023-02-09T16:28:48.181Z,26.90
2023-02-09T16:31:17.632Z,29.48
2023-02-09T16:33:45.841Z,27.75
2023-02-09T16:36:16.732Z,27.92
2023-02-09T16:38:45.347Z,28.00
2023-02-09T16:41:37.855Z,28.83
2023-02-09T16:44:16.453Z,28.20
2023-02-09T16:46:46.855Z,29.88
2023-02-09T16:49:31.124Z,28.27
2023-02-09T16:52:02.990Z,29.60
2023-02-09T16:54:34.143Z,28.10
2023-02-09T16:57:02.705Z,29.10
2023-02-09T16:59:30.769Z,29.35
2023-02-09T17:02:02.147Z,28.63
2023-02-09T17:04:30.292Z,28.85
2023-02-09T17:06:58.303Z,30.35
2023-02-09T17:09:26.305Z,28.88
2023-02-09T17:11:54.316Z,31.33
2023-02-09T17:14:22.312Z,32.70
2023-02-09T17:16:50.632Z,29.20
2023-02-09T17:19:20.112Z,28.55
2023-02-09T17:21:48.086Z,29.83
2023-02-09T17:24:17.998Z,31.33
2023-02-09T17:26:46.187Z,30.65
2023-02-09T17:29:14.544Z,31.65
2023-02-09T17:31:53.359Z,31.13
2023-02-09T17:34:27.133Z,30.80
2023-02-09T17:36:55.315Z,30.98
2023-02-09T17:39:23.264Z,31.70
2023-02-09T17:41:51.279Z,32.53
2023-02-09T17:44:34.880Z,30.52
2023-02-09T17:47:11.174Z,31.30
2023-02-09T17:49:40.546Z,29.15
2023-02-09T17:52:12.954Z,30.13
2023-02-09T17:54:41.001Z,30.65
2023-02-09T17:57:12.742Z,31.02
2023-02-09T17:59:40.702Z,30.65
2023-02-09T18:02:15.905Z,30.95
2023-02-09T18:04:45.588Z,30.50
2023-02-09T18:07:14.516Z,29.80
2023-02-09T18:09:42.519Z,28.50
2023-02-09T18:12:18.947Z,29.17
2023-02-09T18:14:46.955Z,28.02
2023-02-09T18:17:15.500Z,28.67
2023-02-09T18:19:44.946Z,29.20
2023-02-09T18:22:16.993Z,27.35
2023-02-09T18:24:45.854Z,27.38
2023-02-09T18:27:15.926Z,29.05
2023-02-09T18:29:43.978Z,27.27
2023-02-09T18:32:13.924Z,26.13
2023-02-09T18:34:42.082Z,27.50
2023-02-09T18:37:11.422Z,25.77
2023-02-09T18:39:46.031Z,26.05
2023-02-09T18:42:15.448Z,26.48
2023-02-09T18:44:43.428Z,27.23
2023-02-09T18:47:12.172Z,24.98
2023-02-09T18:49:40.341Z,26.35
2023-02-09T18:52:10.257Z,26.63
2023-02-09T18:54:40.563Z,25.52
2023-02-09T18:57:08.556Z,24.33
2023-02-09T18:59:37.275Z,24.80
2023-02-09T19:02:05.239Z,23.95
2023-02-09T19:04:33.345Z,25.13
2023-02-09T19:07:02.264Z,24.60
2023-02-09T19:09:30.292Z,24.10
2023-02-09T19:11:59.670Z,23.38
2023-02-09T19:14:39.815Z,24.40
2023-02-09T19:17:09.512Z,23.90
2023-02-09T19:19:38.756Z,24.65
2023-02-09T19:22:06.994Z,24.08
2023-02-09T19:24:34.977Z,23.75
2023-02-09T19:27:06.662Z,23.15
2023-02-09T19:29:34.720Z,23.90
2023-02-09T19:32:03.081Z,21.88
2023-02-09T19:34:32.062Z,22.70
2023-02-09T19:37:00.454Z,21.70
2023-02-09T19:39:28.488Z,23.23
2023-02-09T19:41:56.458Z,23.50
2023-02-09T19:44:25.768Z,23.05
2023-02-09T19:46:53.779Z,22.65
2023-02-09T19:49:22.957Z,21.55
2023-02-09T19:51:51.426Z,22.67
2023-02-09T19:54:19.526Z,22.20
2023-02-09T19:56:47.492Z,23.07
2023-02-09T19:59:16.999Z,22.80
2023-02-09T20:01:46.347Z,22.90
2023-02-09T20:04:14.533Z,22.85
2023-02-09T20:06:42.808Z,21.50
2023-02-09T20:09:12.339Z,22.35
2023-02-09T20:11:40.409Z,23.38
2023-02-09T20:14:08.409Z,22.50
2023-02-09T20:16:36.476Z,22.05
2023-02-09T20:19:06.921Z,22.85
2023-02-09T20:21:35.608Z,21.73
2023-02-09T20:24:09.299Z,22.15
2023-02-09T20:26:37.587Z,23.92
2023-02-09T20:29:06.388Z,22.60
2023-02-09T20:31:37.228Z,22.23
2023-02-09T20:34:08.334Z,22.65
2023-02-09T20:36:37.626Z,22.00
2023-02-09T20:39:06.422Z,21.08
2023-02-09T20:41:34.571Z,21.63
2023-02-09T20:44:20.319Z,21.08
2023-02-09T20:46:57.544Z,21.08
2023-02-09T20:49:31.357Z,19.80
2023-02-09T20:51:59.841Z,20.55
2023-02-09T20:54:28.024Z,20.93
2023-02-09T20:56:55.987Z,19.60
2023-02-09T20:59:23.975Z,20.88
2023-02-09T21:01:52.239Z,21.10
2023-02-09T21:04:20.430Z,19.83
2023-02-09T21:06:49.781Z,19.00
2023-02-09T21:09:19.091Z,19.58
2023-02-09T21:11:47.261Z,19.75
2023-02-09T21:14:27.098Z,20.73
2023-02-09T21:16:56.376Z,20.40
2023-02-09T21:19:24.860Z,19.75
2023-02-09T21:21:54.250Z,18.52
2023-02-09T21:24:22.484Z,19.45
2023-02-09T21:26:50.417Z,17.67
2023-02-09T21:29:18.879Z,19.35
2023-02-09T21:31:47.157Z,19.90
2023-02-09T21:34:15.977Z,18.85
2023-02-09T21:36:44.502Z,19.00
2023-02-09T21:39:14.397Z,18.30
2023-02-09T21:41:59.825Z,18.97
2023-02-09T21:44:27.843Z,19.30
2023-02-09T21:46:55.902Z,19.42
2023-02-09T21:49:24.305Z,18.50
2023-02-09T21:51:52.284Z,18.48
2023-02-09T21:54:21.691Z,18.40
2023-02-09T21:56:49.691Z,17.45
2023-02-09T21:59:17.726Z,18.03
2023-02-09T22:01:45.693Z,17.75
2023-02-09T22:04:13.767Z,16.23
2023-02-09T22:06:42.760Z,16.58
2023-02-09T22:09:10.700Z,16.50
2023-02-09T22:11:40.382Z,15.73
2023-02-09T22:14:09.207Z,16.20
2023-02-09T22:16:37.215Z,15.95
2023-02-09T22:19:05.640Z,16.45
2023-02-09T22:21:33.611Z,15.90
2023-02-09T22:24:01.642Z,16.10
2023-02-09T22:26:29.564Z,15.88
2023-02-09T22:28:58.958Z,15.50
2023-02-09T22:31:26.912Z,15.55
2023-02-09T22:33:55.770Z,16.13
2023-02-09T22:36:24.378Z,14.40
2023-02-09T22:38:52.657Z,15.60
2023-02-09T22:41:25.182Z,14.60
2023-02-09T22:43:55.829Z,14.23
2023-02-09T22:46:27.371Z,14.32
2023-02-09T22:48:56.971Z,14.02
2023-02-09T22:51:25.857Z,14.00
2023-02-09T22:53:53.842Z,13.75
2023-02-09T22:56:21.902Z,13.20
2023-02-09T22:58:50.156Z,12.05
2023-02-09T23:01:18.839Z,13.40
2023-02-09T23:03:48.522Z,11.88
2023-02-09T23:06:18.550Z,12.70
2023-02-09T23:08:46.689Z,11.40
2023-02-09T23:11:16.665Z,12.35
2023-02-09T23:13:45.539Z,12.20
2023-02-09T23:16:15.549Z,11.70
2023-02-09T23:18:49.427Z,12.40
2023-02-09T23:21:17.853Z,11.73
2023-02-09T23:23:46.160Z,10.75
2023-02-09T23:26:15.088Z,11.13
2023-02-09T23:28:43.196Z,10.98
2023-02-09T23:31:14.597Z,11.23
2023-02-09T23:33:43.254Z,11.90
2023-02-09T23:36:16.346Z,10.60
2023-02-09T23:38:45.214Z,10.02
2023-02-09T23:41:15.263Z,10.32
2023-02-09T23:43:44.247Z,9.82
2023-02-09T23:46:14.216Z,10.88
2023-02-09T23:48:42.400Z,10.20
2023-02-09T23:51:15.281Z,10.90
2023-02-09T23:53:43.497Z,8.80
2023-02-09T23:56:13.381Z,9.70
2023-02-09T23:58:42.995Z,9.48
